Time;durP1;ratioP1;P1;durP2;ratioP2;P2;SDS_P1;SDS_P2;PMS_P1;PMS_P2;Temp;Humidity;BMP_temperature;BMP_pressure;BME280_temperature;BME280_humidity;BME280_pressure;Samples;Min_cycle;Max_cycle;Signal;HPM_P1;HPM_P2
2023/05/25 00:00:08;;;;;;;10.13;8.15;;;7.80;99.90;;;;;;5016150;28;20172;-76
2023/05/25 00:02:34;;;;;;;11.40;7.07;;;7.80;99.90;;;;;;5016298;28;20176;-76
2023/05/25 00:05:01;;;;;;;9.20;7.60;;;7.80;99.90;;;;;;5015132;28;20201;-76
2023/05/25 00:07:27;;;;;;;12.02;8.35;;;7.90;99.90;;;;;;5014066;28;20560;-76
2023/05/25 00:09:53;;;;;;;13.07;7.57;;;7.90;99.90;;;;;;5014695;28;20183;-76
2023/05/25 00:12:19;;;;;;;15.67;7.87;;;7.90;99.90;;;;;;5015976;28;20698;-76
2023/05/25 00:14:45;;;;;;;9.50;7.03;;;7.90;99.90;;;;;;5014812;28;20214;-76
2023/05/25 00:17:10;;;;;;;10.63;7.38;;;7.90;99.90;;;;;;5015774;28;20199;-75
2023/05/25 00:19:41;;;;;;;12.73;8.10;;;7.90;99.90;;;;;;5014647;28;20183;-76
2023/05/25 00:22:08;;;;;;;9.10;7.30;;;7.90;99.90;;;;;;5015801;28;20179;-75
2023/05/25 00:24:33;;;;;;;15.87;7.70;;;7.90;99.90;;;;;;5014623;28;20184;-76
2023/05/25 00:26:59;;;;;;;11.03;7.97;;;7.80;99.90;;;;;;5015671;28;20254;-76
2023/05/25 00:29:25;;;;;;;10.03;7.67;;;7.80;99.90;;;;;;5015989;28;20525;-76
2023/05/25 00:31:52;;;;;;;13.33;7.33;;;7.80;99.90;;;;;;5016023;28;20214;-75
2023/05/25 00:34:18;;;;;;;15.73;8.90;;;7.70;99.90;;;;;;5015787;28;20157;-76
2023/05/25 00:36:48;;;;;;;13.18;9.13;;;7.70;99.90;;;;;;5014129;28;20265;-76
2023/05/25 00:39:15;;;;;;;10.97;8.40;;;7.70;99.90;;;;;;5015659;28;20294;-75
2023/05/25 00:41:43;;;;;;;13.87;8.30;;;7.70;99.90;;;;;;5015295;28;20187;-76
2023/05/25 00:44:09;;;;;;;12.37;8.53;;;7.80;99.90;;;;;;5014119;28;20160;-75
2023/05/25 00:46:39;;;;;;;13.43;8.43;;;7.90;99.90;;;;;;5015396;28;20202;-75
2023/05/25 00:49:05;;;;;;;13.27;8.13;;;8.00;99.90;;;;;;5015334;28;20231;-75
2023/05/25 00:51:31;;;;;;;14.55;8.88;;;8.00;99.90;;;;;;5013615;28;20212;-75
2023/05/25 00:53:58;;;;;;;11.93;8.27;;;7.90;99.90;;;;;;5013882;28;20230;-75
2023/05/25 00:56:29;;;;;;;16.13;9.67;;;7.90;99.90;;;;;;5014880;28;20180;-76
2023/05/25 00:58:57;;;;;;;10.63;7.93;;;7.80;99.90;;;;;;5013851;28;20536;-75
2023/05/25 01:01:26;;;;;;;11.50;8.30;;;7.80;99.90;;;;;;5015366;28;20234;-75
2023/05/25 01:03:54;;;;;;;16.20;9.23;;;7.70;99.90;;;;;;5013510;28;20180;-76
2023/05/25 01:06:21;;;;;;;15.43;9.30;;;7.70;99.90;;;;;;5014772;28;20195;-76
2023/05/25 01:08:53;;;;;;;14.27;8.90;;;7.70;99.90;;;;;;5014510;28;20195;-75
2023/05/25 01:11:28;;;;;;;15.47;8.60;;;7.80;99.90;;;;;;5014536;28;20156;-76
2023/05/25 01:13:55;;;;;;;17.25;9.13;;;7.90;99.90;;;;;;5013307;28;20225;-75
2023/05/25 01:16:21;;;;;;;12.83;8.47;;;7.90;99.90;;;;;;5013146;28;20663;-76
2023/05/25 01:18:47;;;;;;;11.90;8.63;;;7.90;99.90;;;;;;5013894;28;20259;-75
2023/05/25 01:21:21;;;;;;;14.87;9.43;;;7.90;99.90;;;;;;5013466;28;20646;-75
2023/05/25 01:24:11;;;;;;;9.48;8.18;;;7.80;99.90;;;;;;5014517;28;20179;-76
2023/05/25 01:26:53;;;;;;;13.80;8.40;;;7.60;99.90;;;;;;5014475;28;20252;-75
2023/05/25 01:29:21;;;;;;;12.15;8.63;;;7.70;99.90;;;;;;5013115;28;20266;-75
2023/05/25 01:31:47;;;;;;;13.07;8.77;;;7.70;99.90;;;;;;5012785;28;20175;-74
2023/05/25 01:34:15;;;;;;;12.10;8.63;;;7.70;99.90;;;;;;5013077;28;20267;-75
2023/05/25 01:36:41;;;;;;;11.88;8.70;;;7.70;99.90;;;;;;5008378;28;20669;-75
2023/05/25 01:39:09;;;;;;;13.23;8.40;;;7.70;99.90;;;;;;5014180;28;20179;-75
2023/05/25 01:41:35;;;;;;;13.83;8.73;;;7.70;99.90;;;;;;5014010;28;20179;-76
2023/05/25 01:44:01;;;;;;;15.13;9.43;;;7.70;99.90;;;;;;5014234;28;20241;-75
2023/05/25 01:46:49;;;;;;;13.37;9.00;;;7.60;99.90;;;;;;5014158;28;20187;-75
2023/05/25 01:49:31;;;;;;;12.77;9.70;;;7.60;99.90;;;;;;5014249;28;20152;-75
2023/05/25 01:52:22;;;;;;;15.57;9.33;;;7.50;99.90;;;;;;5012705;28;20225;-75
2023/05/25 01:55:17;;;;;;;14.20;9.40;;;7.50;99.90;;;;;;5012751;28;20172;-75
2023/05/25 01:57:48;;;;;;;15.33;9.37;;;7.40;99.90;;;;;;5001537;28;20208;-75
2023/05/25 02:00:16;;;;;;;18.37;9.37;;;7.40;99.90;;;;;;5012724;28;20176;-75
2023/05/25 02:02:45;;;;;;;10.80;8.20;;;7.20;99.90;;;;;;5014143;28;20179;-75
2023/05/25 02:05:12;;;;;;;11.13;8.53;;;7.10;99.90;;;;;;5013826;28;20183;-75
2023/05/25 02:07:38;;;;;;;11.90;8.50;;;7.00;99.90;;;;;;5012324;28;20203;-75
2023/05/25 02:10:04;;;;;;;12.40;8.00;;;7.10;99.90;;;;;;5012691;28;20529;-76
2023/05/25 02:12:30;;;;;;;11.27;7.90;;;7.10;99.90;;;;;;5012331;28;20655;-75
2023/05/25 02:14:55;;;;;;;11.57;7.80;;;7.00;99.90;;;;;;5012554;28;20190;-75
2023/05/25 02:17:21;;;;;;;16.63;8.23;;;6.90;99.90;;;;;;5012517;28;20210;-75
2023/05/25 02:19:51;;;;;;;13.83;8.17;;;6.80;99.90;;;;;;5014260;28;20176;-75
2023/05/25 02:22:17;;;;;;;10.70;7.93;;;6.70;99.90;;;;;;5013957;28;20161;-75
2023/05/25 02:24:43;;;;;;;11.67;7.60;;;6.70;99.90;;;;;;5014235;28;20172;-75
2023/05/25 02:27:11;;;;;;;10.23;7.40;;;6.60;99.90;;;;;;5012117;28;20234;-75
2023/05/25 02:29:37;;;;;;;9.57;8.23;;;6.70;99.90;;;;;;5012297;28;20529;-75
2023/05/25 02:32:03;;;;;;;19.00;9.00;;;6.70;99.90;;;;;;5016044;28;20282;-75
2023/05/25 02:34:29;;;;;;;24.77;8.77;;;6.50;99.90;;;;;;5016345;28;20175;-75
2023/05/25 02:36:55;;;;;;;21.70;9.27;;;6.50;99.90;;;;;;5016491;28;20235;-75
2023/05/25 02:39:20;;;;;;;14.90;9.20;;;6.40;99.90;;;;;;5017648;28;20172;-75
2023/05/25 02:41:46;;;;;;;15.63;9.10;;;6.50;99.90;;;;;;5016036;28;20202;-75
2023/05/25 02:44:12;;;;;;;9.47;8.27;;;6.60;99.90;;;;;;5017263;28;20172;-75
2023/05/25 02:46:38;;;;;;;11.70;8.57;;;6.70;99.90;;;;;;5016142;28;20187;-75
2023/05/25 02:49:04;;;;;;;11.37;8.43;;;6.90;99.90;;;;;;5017640;28;20567;-75
2023/05/25 02:51:31;;;;;;;11.60;8.03;;;6.90;99.90;;;;;;5017387;28;20187;-77
2023/05/25 02:53:56;;;;;;;12.60;8.90;;;6.80;99.90;;;;;;5017116;28;20180;-77
2023/05/25 02:56:22;;;;;;;12.87;8.67;;;6.90;99.90;;;;;;5018529;28;20176;-77
2023/05/25 02:58:49;;;;;;;13.23;9.07;;;6.80;99.90;;;;;;5016655;28;20176;-74
2023/05/25 03:01:18;;;;;;;14.40;9.80;;;6.70;99.90;;;;;;5017176;28;20180;-75
2023/05/25 03:03:51;;;;;;;16.60;10.43;;;6.80;99.90;;;;;;5017419;28;20175;-75
2023/05/25 03:06:17;;;;;;;14.87;9.20;;;6.80;99.90;;;;;;5015497;28;20682;-75
2023/05/25 03:08:43;;;;;;;14.93;10.03;;;6.80;99.90;;;;;;5016775;28;20199;-75
2023/05/25 03:11:09;;;;;;;14.27;10.10;;;6.60;99.90;;;;;;5016780;28;20180;-75
2023/05/25 03:13:35;;;;;;;16.40;9.77;;;6.50;99.90;;;;;;5016822;28;20176;-75
2023/05/25 03:16:00;;;;;;;21.60;10.97;;;6.50;99.90;;;;;;5017071;28;20199;-75
2023/05/25 03:18:26;;;;;;;14.73;9.70;;;6.40;99.90;;;;;;5015374;28;20204;-76
2023/05/25 03:20:52;;;;;;;14.00;9.57;;;6.40;99.90;;;;;;5016643;28;20184;-75
2023/05/25 03:23:18;;;;;;;12.20;8.13;;;6.40;99.90;;;;;;5016745;28;20180;-75
2023/05/25 03:25:44;;;;;;;10.93;7.57;;;6.20;99.90;;;;;;5017004;28;20535;-74
2023/05/25 03:28:10;;;;;;;9.90;8.43;;;6.10;99.90;;;;;;5015043;28;20207;-75
2023/05/25 03:30:36;;;;;;;9.87;8.17;;;6.00;99.90;;;;;;5016652;28;20176;-74
2023/05/25 03:33:01;;;;;;;8.97;7.60;;;6.00;99.90;;;;;;5015103;28;20195;-74
2023/05/25 03:35:27;;;;;;;13.70;8.00;;;6.00;99.90;;;;;;5015094;28;20179;-75
2023/05/25 03:37:53;;;;;;;9.70;8.07;;;6.00;99.90;;;;;;5016695;28;20214;-74
2023/05/25 03:40:18;;;;;;;10.37;7.93;;;6.10;99.90;;;;;;5016520;28;20176;-75
2023/05/25 03:42:44;;;;;;;11.83;7.80;;;6.20;99.90;;;;;;5015644;28;20175;-74
2023/05/25 03:45:10;;;;;;;12.70;8.83;;;6.40;99.90;;;;;;5016099;28;20237;-74
2023/05/25 03:47:36;;;;;;;13.70;9.57;;;6.40;99.90;;;;;;5035411;23;20286;-82
2023/05/25 03:50:05;;;;;;;10.23;8.33;;;6.40;99.90;;;;;;5019876;28;20211;-82
2023/05/25 03:52:32;;;;;;;13.00;9.30;;;6.40;99.90;;;;;;5020900;28;20172;-82
2023/05/25 03:55:00;;;;;;;13.80;9.23;;;6.40;99.90;;;;;;5038822;28;20202;-82
2023/05/25 03:57:26;;;;;;;14.37;9.17;;;6.40;99.90;;;;;;5039458;28;20182;-82
2023/05/25 03:59:52;;;;;;;13.33;9.07;;;6.50;99.90;;;;;;5039571;28;20218;-82
2023/05/25 04:02:18;;;;;;;16.77;9.30;;;6.40;99.90;;;;;;5039211;28;20188;-83
2023/05/25 04:04:44;;;;;;;16.10;8.90;;;6.50;99.90;;;;;;5040179;28;20199;-82
2023/05/25 04:07:09;;;;;;;11.97;8.67;;;6.50;99.90;;;;;;5039458;28;20551;-82
2023/05/25 04:09:35;;;;;;;15.60;9.57;;;6.60;99.90;;;;;;5039456;28;20206;-81
2023/05/25 04:12:01;;;;;;;14.20;9.90;;;6.60;99.90;;;;;;5041080;28;20664;-82
2023/05/25 04:14:27;;;;;;;14.17;9.80;;;6.60;99.90;;;;;;5039733;28;20570;-82
2023/05/25 04:16:52;;;;;;;14.47;9.87;;;6.70;99.90;;;;;;5039781;28;20181;-82
2023/05/25 04:19:18;;;;;;;17.30;10.00;;;6.70;99.90;;;;;;5039531;28;20213;-81
2023/05/25 04:21:59;;;;;;;14.30;9.97;;;6.70;99.90;;;;;;5040074;28;20667;-82
2023/05/25 04:24:26;;;;;;;12.57;9.10;;;6.60;99.90;;;;;;5041099;28;20186;-81
2023/05/25 04:26:52;;;;;;;14.43;9.90;;;6.50;99.90;;;;;;5039643;28;20190;-81
2023/05/25 04:29:17;;;;;;;14.77;10.10;;;6.50;99.90;;;;;;5040020;28;20297;-81
2023/05/25 04:31:44;;;;;;;14.57;10.00;;;6.40;99.90;;;;;;5041154;28;20231;-81
2023/05/25 04:34:13;;;;;;;16.70;10.67;;;6.40;99.90;;;;;;5039497;28;20199;-82
2023/05/25 04:36:42;;;;;;;16.13;10.40;;;6.40;99.90;;;;;;5039806;28;20265;-82
2023/05/25 04:39:07;;;;;;;16.30;11.03;;;6.50;99.90;;;;;;5041145;28;20175;-81
2023/05/25 04:41:34;;;;;;;13.93;10.37;;;6.60;99.90;;;;;;5038583;28;20268;-83
2023/05/25 04:44:00;;;;;;;17.30;10.60;;;6.60;99.90;;;;;;5039132;28;20230;-82
2023/05/25 04:46:25;;;;;;;17.07;11.97;;;6.70;99.90;;;;;;5038702;28;20190;-81
2023/05/25 04:48:51;;;;;;;21.77;12.40;;;6.60;99.90;;;;;;5038920;28;20202;-82
2023/05/25 04:51:17;;;;;;;19.10;11.67;;;6.70;99.90;;;;;;5040469;28;20172;-82
2023/05/25 04:53:42;;;;;;;19.67;12.13;;;6.70;99.90;;;;;;5039244;28;20683;-83
2023/05/25 04:56:08;;;;;;;19.57;12.17;;;6.80;99.90;;;;;;5039858;28;20179;-82
2023/05/25 04:58:34;;;;;;;14.17;10.63;;;6.70;99.90;;;;;;5041001;28;20257;-82
2023/05/25 05:04:25;;;;;;;14.83;10.83;;;6.70;99.90;;;;;;5041038;28;20250;-82
2023/05/25 05:13:34;;;;;;;19.80;12.27;;;6.80;99.90;;;;;;5037241;28;20608;-82
2023/05/25 05:16:00;;;;;;;16.03;11.40;;;6.90;99.90;;;;;;5035297;28;20273;-82
2023/05/25 05:18:27;;;;;;;14.80;11.43;;;6.90;99.90;;;;;;5034658;28;20185;-82
2023/05/25 05:20:53;;;;;;;18.97;12.30;;;6.90;99.90;;;;;;5033863;28;20266;-81
2023/05/25 05:23:19;;;;;;;18.27;11.43;;;7.00;99.90;;;;;;5035035;28;20741;-82
2023/05/25 05:25:45;;;;;;;15.10;10.87;;;7.10;99.90;;;;;;5033908;28;20182;-81
2023/05/25 05:28:10;;;;;;;15.83;11.80;;;7.20;99.90;;;;;;5034084;28;20261;-81
2023/05/25 05:30:36;;;;;;;14.77;10.97;;;7.40;99.90;;;;;;5034797;28;20207;-83
2023/05/25 05:33:02;;;;;;;18.10;11.40;;;7.60;99.90;;;;;;5036258;28;20195;-83
2023/05/25 05:35:28;;;;;;;16.13;11.60;;;7.70;99.90;;;;;;5037166;28;20219;-83
2023/05/25 05:37:53;;;;;;;14.23;11.27;;;7.80;99.90;;;;;;5038040;28;20510;-83
2023/05/25 05:40:19;;;;;;;16.40;11.07;;;7.90;99.90;;;;;;5036455;28;20222;-83
2023/05/25 05:42:45;;;;;;;21.13;11.03;;;8.00;99.90;;;;;;5036279;28;20187;-83
2023/05/25 05:45:10;;;;;;;14.97;11.80;;;8.10;99.90;;;;;;5035450;28;20640;-81
2023/05/25 05:47:36;;;;;;;20.80;11.73;;;8.20;99.90;;;;;;5035531;28;20207;-81
2023/05/25 05:50:02;;;;;;;18.03;12.20;;;8.30;99.90;;;;;;5037147;28;20171;-82
2023/05/25 05:52:28;;;;;;;18.67;12.57;;;8.50;99.90;;;;;;5035577;28;20183;-82
2023/05/25 05:54:54;;;;;;;17.07;11.83;;;8.60;99.90;;;;;;5035163;28;20200;-82
2023/05/25 05:57:19;;;;;;;15.90;11.53;;;8.70;99.90;;;;;;5034051;28;20588;-82
2023/05/25 05:59:45;;;;;;;17.65;11.23;;;8.80;99.90;;;;;;5034896;28;20171;-82
2023/05/25 06:02:11;;;;;;;16.65;11.50;;;8.90;99.90;;;;;;5035320;28;20613;-82
2023/05/25 06:04:37;;;;;;;19.23;12.98;;;9.00;99.90;;;;;;5034747;28;20249;-82
2023/05/25 06:07:03;;;;;;;20.10;13.07;;;9.10;99.90;;;;;;5035113;28;20179;-83
2023/05/25 06:09:28;;;;;;;19.07;12.57;;;9.10;99.90;;;;;;5035274;28;20171;-82
2023/05/25 06:11:54;;;;;;;20.30;13.10;;;9.20;99.90;;;;;;5034885;28;20173;-81
2023/05/25 06:14:20;;;;;;;19.73;12.25;;;9.30;99.90;;;;;;5034178;28;20226;-81
2023/05/25 06:16:45;;;;;;;25.13;15.65;;;9.40;99.90;;;;;;5034917;28;20171;-83
2023/05/25 06:19:13;;;;;;;20.70;14.30;;;9.40;99.90;;;;;;5033532;28;20340;-85
2023/05/25 06:21:38;;;;;;;20.60;13.50;;;9.30;99.90;;;;;;5035298;28;20228;-84
2023/05/25 06:24:05;;;;;;;26.38;13.75;;;9.40;99.90;;;;;;5034700;28;20282;-83
2023/05/25 06:26:31;;;;;;;21.23;14.43;;;9.50;99.90;;;;;;5035467;28;20704;-84
2023/05/25 06:28:56;;;;;;;23.73;14.10;;;9.60;99.90;;;;;;5033192;28;20230;-84
2023/05/25 06:31:22;;;;;;;28.83;14.65;;;9.60;99.90;;;;;;5032552;28;20179;-84
2023/05/25 06:33:48;;;;;;;20.48;14.40;;;9.60;99.90;;;;;;5034509;28;20216;-84
2023/05/25 06:36:14;;;;;;;25.08;14.07;;;9.60;99.90;;;;;;5032807;28;20179;-84
2023/05/25 06:38:40;;;;;;;21.50;13.40;;;9.60;99.90;;;;;;5032894;28;20182;-84
2023/05/25 06:41:08;;;;;;;22.63;13.73;;;9.60;99.90;;;;;;5034297;28;20223;-84
2023/05/25 06:43:34;;;;;;;22.55;14.57;;;9.80;99.90;;;;;;5034922;28;20191;-83
2023/05/25 06:46:00;;;;;;;21.08;13.20;;;9.90;99.90;;;;;;5034819;28;20195;-84
2023/05/25 06:48:25;;;;;;;24.50;14.52;;;9.90;99.90;;;;;;5035011;28;20198;-84
2023/05/25 06:50:51;;;;;;;22.00;15.10;;;9.90;99.90;;;;;;5034513;28;20172;-84
2023/05/25 06:53:17;;;;;;;20.88;13.68;;;10.10;99.90;;;;;;5033012;28;20202;-84
2023/05/25 06:55:43;;;;;;;23.50;14.63;;;10.20;99.90;;;;;;5034610;28;20221;-84
2023/05/25 06:58:09;;;;;;;22.30;15.00;;;10.40;99.90;;;;;;5032765;28;20185;-84
2023/05/25 07:00:34;;;;;;;21.85;14.48;;;10.60;99.90;;;;;;5032788;28;20279;-84
2023/05/25 07:03:00;;;;;;;23.58;15.10;;;10.80;99.90;;;;;;5032857;28;20263;-84
2023/05/25 07:05:26;;;;;;;29.27;16.17;;;10.90;99.90;;;;;;5033234;28;20229;-84
2023/05/25 07:07:52;;;;;;;26.17;15.75;;;10.90;99.90;;;;;;5032694;28;20215;-84
2023/05/25 07:10:17;;;;;;;24.33;14.50;;;11.10;99.90;;;;;;5033366;28;20636;-84
2023/05/25 07:12:43;;;;;;;28.88;14.77;;;11.30;99.90;;;;;;5033450;28;20222;-84
2023/05/25 07:15:10;;;;;;;27.33;15.80;;;11.50;99.90;;;;;;5033004;28;20206;-84
2023/05/25 07:17:35;;;;;;;27.08;15.68;;;11.70;99.90;;;;;;5035766;28;20613;-84
2023/05/25 07:20:03;;;;;;;22.73;15.15;;;11.80;99.90;;;;;;5036776;28;20203;-84
2023/05/25 07:22:29;;;;;;;20.58;13.80;;;12.00;99.90;;;;;;5036625;28;20269;-84
2023/05/25 07:24:54;;;;;;;24.83;15.30;;;12.00;99.90;;;;;;5036466;28;20721;-85
2023/05/25 07:27:20;;;;;;;20.58;13.85;;;12.10;99.90;;;;;;5037900;28;20203;-84
2023/05/25 07:29:46;;;;;;;17.75;12.98;;;12.10;99.90;;;;;;5036803;28;20187;-84
2023/05/25 07:32:11;;;;;;;19.38;12.40;;;12.30;99.90;;;;;;5036548;28;20256;-84
2023/05/25 07:34:37;;;;;;;27.10;13.48;;;12.30;99.90;;;;;;5036078;28;20206;-84
2023/05/25 07:37:03;;;;;;;26.25;13.50;;;12.40;99.90;;;;;;5037177;28;20733;-84
2023/05/25 07:39:28;;;;;;;21.05;14.23;;;12.30;99.90;;;;;;5037394;28;20175;-84
2023/05/25 07:41:54;;;;;;;23.77;13.73;;;12.20;99.90;;;;;;5036145;28;20175;-85
2023/05/25 07:44:20;;;;;;;25.77;14.18;;;12.30;99.90;;;;;;5037442;28;20270;-84
2023/05/25 07:46:46;;;;;;;22.63;13.45;;;12.50;99.90;;;;;;5036492;28;20195;-84
2023/05/25 07:49:15;;;;;;;25.35;12.80;;;12.60;99.90;;;;;;5036452;28;20231;-84
2023/05/25 07:51:44;;;;;;;21.98;13.48;;;12.70;99.90;;;;;;5037997;28;20172;-84
2023/05/25 07:54:10;;;;;;;21.05;12.80;;;12.70;99.90;;;;;;5036199;28;20233;-83
2023/05/25 07:56:37;;;;;;;20.80;12.82;;;12.80;99.90;;;;;;5035955;28;20254;-83
2023/05/25 07:59:03;;;;;;;24.55;13.30;;;12.70;99.90;;;;;;5037765;28;20175;-83
2023/05/25 08:01:28;;;;;;;20.15;13.45;;;12.60;99.90;;;;;;5036362;28;20186;-83
2023/05/25 08:03:54;;;;;;;24.05;13.00;;;12.60;99.90;;;;;;5036838;28;20199;-83
2023/05/25 08:06:20;;;;;;;26.00;13.00;;;12.50;99.90;;;;;;5036323;28;20778;-84
2023/05/25 08:08:45;;;;;;;19.92;12.10;;;12.40;99.90;;;;;;5037179;28;20594;-84
2023/05/25 08:11:11;;;;;;;30.90;13.35;;;12.40;99.90;;;;;;5036236;28;20178;-84
2023/05/25 08:13:38;;;;;;;19.20;11.82;;;12.30;99.90;;;;;;5035662;28;20203;-85
2023/05/25 08:16:04;;;;;;;21.05;12.18;;;12.20;99.90;;;;;;5036735;28;20179;-85
2023/05/25 08:18:30;;;;;;;19.30;12.75;;;12.20;99.90;;;;;;5037058;28;20595;-84
2023/05/25 08:20:56;;;;;;;20.77;12.70;;;12.30;99.90;;;;;;5035996;28;20183;-85
2023/05/25 08:23:22;;;;;;;20.02;12.38;;;12.30;99.90;;;;;;5035583;28;20252;-84
2023/05/25 08:25:48;;;;;;;23.73;12.07;;;12.40;99.90;;;;;;5035873;28;20207;-84
2023/05/25 08:28:14;;;;;;;21.38;12.23;;;12.50;99.90;;;;;;5036455;28;20203;-84
2023/05/25 08:30:40;;;;;;;21.65;11.90;;;12.60;99.90;;;;;;5035591;28;20179;-84
2023/05/25 08:33:06;;;;;;;17.25;11.32;;;12.70;99.90;;;;;;5036226;28;20198;-84
2023/05/25 08:35:32;;;;;;;19.73;11.43;;;12.70;99.90;;;;;;5034740;28;20174;-84
2023/05/25 08:37:58;;;;;;;19.23;10.93;;;12.80;99.90;;;;;;5035868;28;20179;-84
2023/05/25 08:40:27;;;;;;;22.70;11.98;;;12.90;99.90;;;;;;5035540;28;20640;-84
2023/05/25 08:42:53;;;;;;;17.55;11.23;;;12.80;99.90;;;;;;5034445;28;20523;-84
2023/05/25 08:45:18;;;;;;;16.27;10.77;;;12.90;99.90;;;;;;5034831;28;20210;-84
2023/05/25 08:47:47;;;;;;;21.05;12.05;;;12.80;99.90;;;;;;5034190;28;20217;-84
2023/05/25 08:50:14;;;;;;;14.63;9.93;;;12.80;99.90;;;;;;5036034;28;20629;-84
2023/05/25 08:52:48;;;;;;;22.35;11.02;;;12.80;99.90;;;;;;5035557;28;20182;-84
2023/05/25 08:55:18;;;;;;;17.55;10.60;;;12.80;99.90;;;;;;5034435;28;20624;-84
2023/05/25 08:57:58;;;;;;;16.77;11.32;;;12.70;99.90;;;;;;5036211;28;20187;-84
2023/05/25 09:00:33;;;;;;;14.60;10.07;;;12.80;99.90;;;;;;5034759;28;20175;-84
2023/05/25 09:03:24;;;;;;;15.50;9.30;;;12.80;99.90;;;;;;5034370;28;20631;-84
2023/05/25 09:05:50;;;;;;;17.73;9.52;;;12.80;99.90;;;;;;5035972;28;20595;-84
2023/05/25 09:08:16;;;;;;;19.48;10.63;;;12.90;99.90;;;;;;5034344;28;20558;-84
2023/05/25 09:10:42;;;;;;;19.00;9.27;;;12.80;99.90;;;;;;5035752;28;20250;-84
2023/05/25 09:13:08;;;;;;;15.57;9.32;;;12.80;99.90;;;;;;5036035;28;20198;-84
2023/05/25 09:15:34;;;;;;;19.63;9.73;;;12.70;99.90;;;;;;5035615;28;20258;-84
2023/05/25 09:18:00;;;;;;;18.70;9.02;;;12.70;99.90;;;;;;5035688;28;20245;-83
2023/05/25 09:20:32;;;;;;;12.63;8.63;;;12.70;99.90;;;;;;5034129;28;20640;-83
2023/05/25 09:22:58;;;;;;;12.95;8.45;;;12.80;99.90;;;;;;5034548;28;20189;-84
2023/05/25 09:25:26;;;;;;;19.88;8.93;;;12.90;99.90;;;;;;5035802;28;20163;-84
2023/05/25 09:27:52;;;;;;;18.77;9.10;;;13.00;99.90;;;;;;5034458;28;20210;-84
2023/05/25 09:30:18;;;;;;;15.77;9.20;;;12.90;99.90;;;;;;5035565;28;20302;-84
2023/05/25 09:32:44;;;;;;;20.27;9.07;;;12.80;99.90;;;;;;5035351;28;20628;-84
2023/05/25 09:35:11;;;;;;;18.60;9.48;;;12.80;99.90;;;;;;5036200;28;20511;-83
2023/05/25 09:37:38;;;;;;;17.77;9.80;;;12.70;99.90;;;;;;5034179;28;20182;-84
2023/05/25 09:40:05;;;;;;;16.70;9.48;;;12.90;99.90;;;;;;5033206;28;20655;-84
2023/05/25 09:42:32;;;;;;;21.33;9.00;;;13.00;99.90;;;;;;5035133;28;20237;-84
2023/05/25 09:44:58;;;;;;;16.90;9.38;;;13.00;99.90;;;;;;5035415;28;20199;-84
2023/05/25 09:47:25;;;;;;;20.00;9.70;;;13.10;99.90;;;;;;5034683;28;20186;-84
2023/05/25 09:49:52;;;;;;;17.63;9.93;;;13.10;99.90;;;;;;5034252;28;20248;-84
2023/05/25 09:52:18;;;;;;;14.05;8.90;;;13.10;99.90;;;;;;5035279;28;20199;-84
2023/05/25 09:54:48;;;;;;;20.95;10.02;;;13.20;99.90;;;;;;5034333;28;20690;-84
2023/05/25 09:57:15;;;;;;;18.77;9.55;;;13.10;99.90;;;;;;5035210;28;20222;-85
2023/05/25 09:59:42;;;;;;;13.63;8.80;;;13.10;99.90;;;;;;5034001;28;20175;-85
2023/05/25 10:02:08;;;;;;;15.75;9.25;;;13.10;99.90;;;;;;5034309;28;20221;-85
2023/05/25 10:04:33;;;;;;;18.73;9.63;;;13.20;99.90;;;;;;5034377;28;20190;-84
2023/05/25 10:07:08;;;;;;;22.92;10.15;;;13.30;99.90;;;;;;5033053;28;20647;-84
2023/05/25 10:09:45;;;;;;;13.10;8.23;;;13.30;99.90;;;;;;5033520;28;20182;-84
2023/05/25 10:12:16;;;;;;;19.45;8.93;;;13.20;99.90;;;;;;5033174;28;20583;-84
2023/05/25 10:14:45;;;;;;;15.57;9.30;;;13.10;99.90;;;;;;5034153;28;20269;-84
2023/05/25 10:17:12;;;;;;;15.80;9.00;;;13.10;99.90;;;;;;5034026;28;20167;-84
2023/05/25 10:19:56;;;;;;;19.42;8.98;;;13.10;99.90;;;;;;5032877;28;20183;-85
2023/05/25 10:22:38;;;;;;;14.70;8.80;;;13.30;99.90;;;;;;5034487;28;20196;-84
2023/05/25 10:25:16;;;;;;;12.77;9.10;;;13.50;99.90;;;;;;5032944;28;20663;-84
2023/05/25 10:28:06;;;;;;;12.80;8.95;;;13.80;99.90;;;;;;5033229;28;20201;-85
2023/05/25 10:30:35;;;;;;;13.63;8.68;;;13.90;99.90;;;;;;5033077;28;20179;-85
2023/05/25 10:33:01;;;;;;;12.85;8.45;;;14.10;99.90;;;;;;5033175;28;20182;-84
2023/05/25 10:35:28;;;;;;;12.98;8.63;;;14.30;99.90;;;;;;5032878;28;20652;-84
2023/05/25 10:37:57;;;;;;;14.00;8.07;;;14.40;82.00;;;;;;5034235;28;20254;-84
2023/05/25 10:40:23;;;;;;;15.00;8.73;;;14.50;81.80;;;;;;5034328;28;20183;-84
2023/05/25 10:42:52;;;;;;;13.95;9.73;;;14.60;94.30;;;;;;5034439;28;20179;-84
2023/05/25 10:45:18;;;;;;;12.02;8.57;;;14.40;94.00;;;;;;5032833;28;20175;-84
2023/05/25 10:47:49;;;;;;;17.55;10.55;;;14.50;99.90;;;;;;5033994;28;20317;-84
2023/05/25 10:50:25;;;;;;;20.63;10.75;;;14.40;99.90;;;;;;5034203;28;20155;-84
2023/05/25 10:53:11;;;;;;;14.95;9.73;;;14.10;99.90;;;;;;5034922;28;20182;-85
2023/05/25 10:55:51;;;;;;;15.90;10.10;;;14.10;99.90;;;;;;5036806;28;20171;-84
2023/05/25 10:58:19;;;;;;;15.63;10.82;;;14.10;99.90;;;;;;5036850;28;20269;-84
2023/05/25 11:00:57;;;;;;;15.90;10.02;;;14.20;99.90;;;;;;5036842;28;20190;-84
2023/05/25 11:03:42;;;;;;;14.35;10.50;;;14.00;96.40;;;;;;5037544;28;20195;-84
2023/05/25 11:06:21;;;;;;;16.50;10.93;;;14.00;99.90;;;;;;5037013;28;20182;-84
2023/05/25 11:08:55;;;;;;;15.27;10.15;;;14.00;99.90;;;;;;5036708;28;20214;-83
2023/05/25 11:11:41;;;;;;;22.20;11.20;;;14.10;99.90;;;;;;5037002;28;20691;-83
2023/05/25 11:14:32;;;;;;;15.68;10.52;;;14.20;99.90;;;;;;5037809;28;20586;-86
2023/05/25 11:17:31;;;;;;;19.75;10.57;;;14.40;99.90;;;;;;5017524;28;20186;-88
2023/05/25 11:20:05;;;;;;;19.63;11.50;;;14.50;99.90;;;;;;4982819;28;20191;-87
2023/05/25 11:22:32;;;;;;;18.80;10.77;;;14.60;99.90;;;;;;5017571;28;20206;-87
2023/05/25 11:25:03;;;;;;;19.35;11.55;;;14.60;99.90;;;;;;5016128;28;20215;-87
2023/05/25 11:27:30;;;;;;;15.35;11.00;;;14.70;5.00;;;;;;5017455;28;20190;-83
2023/05/25 11:29:58;;;;;;;19.58;12.85;;;15.00;99.90;;;;;;5018405;28;20646;-83
2023/05/25 11:32:27;;;;;;;19.95;12.05;;;15.20;48.50;;;;;;5017560;28;20263;-83
2023/05/25 11:34:56;;;;;;;19.55;11.05;;;15.20;1.00;;;;;;5017219;28;20195;-83
2023/05/25 11:37:27;;;;;;;18.30;11.35;;;15.30;1.00;;;;;;5016726;28;20243;-83
2023/05/25 11:39:54;;;;;;;18.25;12.23;;;15.30;1.00;;;;;;5018844;28;20156;-83
2023/05/25 11:42:22;;;;;;;17.38;11.60;;;15.20;1.00;;;;;;5016575;28;20172;-83
2023/05/25 11:44:48;;;;;;;19.92;11.98;;;15.10;61.70;;;;;;5016960;28;20664;-83
2023/05/25 11:47:18;;;;;;;21.35;11.98;;;15.00;95.00;;;;;;5015844;28;20195;-83
2023/05/25 11:49:46;;;;;;;18.23;11.30;;;15.00;37.60;;;;;;5016304;28;20171;-83
2023/05/25 11:52:16;;;;;;;18.50;11.18;;;15.00;58.50;;;;;;5016281;28;20183;-83
2023/05/25 11:54:43;;;;;;;20.23;10.70;;;15.20;94.90;;;;;;5016388;28;20207;-83
2023/05/25 11:57:25;;;;;;;12.60;9.30;;;15.30;91.30;;;;;;5017458;28;20180;-83
2023/05/25 12:00:00;;;;;;;20.17;11.68;;;15.50;95.20;;;;;;5016515;28;20175;-83
2023/05/25 12:02:26;;;;;;;15.93;11.73;;;15.50;1.00;;;;;;5016477;28;20175;-83
2023/05/25 12:05:00;;;;;;;18.95;10.43;;;15.50;1.00;;;;;;5017206;28;20192;-83
2023/05/25 12:07:27;;;;;;;17.15;11.48;;;15.70;11.20;;;;;;5017184;28;20712;-83
2023/05/25 12:10:09;;;;;;;16.40;10.95;;;15.80;1.00;;;;;;5015597;28;20187;-83
2023/05/25 12:12:51;;;;;;;20.15;12.05;;;16.00;1.00;;;;;;5016297;28;20259;-83
2023/05/25 12:15:21;;;;;;;18.35;11.68;;;16.10;20.40;;;;;;5015762;28;20176;-83
2023/05/25 12:17:48;;;;;;;18.13;12.77;;;16.30;1.00;;;;;;5016839;28;20172;-84
2023/05/25 12:20:16;;;;;;;17.67;11.40;;;16.20;1.00;;;;;;5016633;28;20180;-83
2023/05/25 12:22:43;;;;;;;19.10;12.32;;;16.10;1.00;;;;;;5016565;28;20652;-83
2023/05/25 12:25:10;;;;;;;16.50;10.88;;;15.80;99.90;;;;;;5016965;28;20212;-83
2023/05/25 12:27:37;;;;;;;18.83;11.70;;;15.80;1.00;;;;;;5015967;28;20215;-83
2023/05/25 12:30:04;;;;;;;19.73;11.27;;;16.00;1.00;;;;;;5016018;28;20176;-83
2023/05/25 12:32:29;;;;;;;19.77;11.88;;;16.10;1.00;;;;;;5018028;28;20230;-83
2023/05/25 12:35:05;;;;;;;18.52;10.73;;;16.10;1.00;;;;;;5017299;28;20196;-84
2023/05/25 12:37:32;;;;;;;14.52;10.45;;;16.00;1.00;;;;;;5019123;28;20179;-83
2023/05/25 12:39:59;;;;;;;13.35;9.75;;;16.00;1.00;;;;;;5018196;28;20172;-83
2023/05/25 12:42:25;;;;;;;14.55;10.98;;;15.70;1.00;;;;;;5017552;28;20179;-84
2023/05/25 12:44:56;;;;;;;20.25;10.02;;;15.60;77.30;;;;;;5021008;28;20198;-83
2023/05/25 12:47:23;;;;;;;13.98;9.52;;;15.40;1.00;;;;;;5017511;28;20646;-83
2023/05/25 12:49:51;;;;;;;20.52;10.63;;;15.50;1.00;;;;;;5016755;28;20172;-84
2023/05/25 12:52:45;;;;;;;17.75;10.10;;;15.40;1.00;;;;;;5015272;28;20608;-84